Laurent Verva

Laurent Verva

Statistiques 2026

  • Courses courues : 42
  • Nb de victoires : -
  • Nb de places : 1
  • Écart gagnant : 143
  • Réussite à la gagne : -
  • Réussite à la place : 2%
Musique : 0a 8a 4a 6a 6a 0a 5a 5a Da 2a 9a 6a 5a Da 6a 0a 7a 4a
DateRangCatégorieAlloc.Dist.HippodromeChevalRed. KmSpé.
16/10/16 4 Trot 12 000€ 2 875m Laon Cora Bell 1'19"8 Attelé
16/10/16 8 Trot 12 000€ 2 850m Laon Carina Danica 1'22"4 Attelé
16/10/16 3 Trot 12 000€ 2 650m Laon Destin de Bougy 1'22"1 Attelé
16/10/16 3 Trot 12 000€ 2 650m Laon Dapril de Navary 1'21"0 Attelé
15/10/16 7 Trot 28 000€ 2 850m Cabourg Cristiano d'Arc 1'17"5 Attelé
13/10/16 5 Trot 38 000€ 2 150m Enghien Soisy Calba du Pont 1'16"9 Attelé lire

Longtemps en retrait, a gagné du terrain pour finir mais, sans inquiéter les premières.

10/10/16 1 Trot 18 000€ 2 825m Le Croise Laroche Bilingue d'Alci 1'15"4 Attelé
10/10/16 5 Trot 25 000€ 2 825m Le Croise Laroche Cocktail de Tyrole 1'15"7 Attelé
10/10/16 4 Trot 15 000€ 2 825m Le Croise Laroche Duc des Clerbosq 1'18"3 Attelé
09/10/16 D Trot 30 000€ 2 850m Mauquenchy Un Bon Fils Attelé lire

Après avoir figuré, a cédé en face puis a été sanctionné.

09/10/16 6 Trot 22 000€ 2 875m Mauquenchy Anakin Skywalker 1'16"5 Attelé lire

Attentiste en queue de peloton, a comblé du terrain tout au long de la ligne droite.

09/10/16 3 Trot 23 000€ 2 850m Mauquenchy Beauvaisienne 1'16"7 Attelé lire

Très vite à la pointe du combat, a conclu de bonne manière en dedans mais sans inquiéter le duo de tête.

09/10/16 2 Trot 21 000€ 2 875m Mauquenchy Cannelle d'As 1'17"9 Attelé lire

Après avoir figuré, a rejoint les animateurs aux tribunes, avant de s'incliner dans les cent derniers mètres.

09/10/16 6 Trot 21 000€ 2 850m Mauquenchy Chtite Gamine 1'18"3 Attelé lire

A figuré sans pouvoir changer de rythme dans la phase finale.

08/10/16 4 Trot 17 000€ 2 900m Amiens Aline de Touchyvon 1'16"7 Attelé
08/10/16 D Trot 15 000€ 2 400m Amiens Cristiano d'Arc Attelé
08/10/16 1 Trot 16 000€ 2 400m Amiens Balladine d'Alci 1'16"3 Attelé
08/10/16 1 Trot 15 000€ 2 400m Amiens Diego du Houlet 1'18"3 Attelé
02/10/16 D Trot 12 000€ 2 650m Saint Omer Cedre de la Vallee Attelé
02/10/16 0 Trot 12 000€ 2 650m Saint Omer Calife des Salines Attelé
02/10/16 6 Trot 12 000€ 2 625m Saint Omer Dryade des Salines 1'23"3 Attelé
02/10/16 D Trot 12 000€ 2 650m Saint Omer Cannelle du Loisir Attelé
02/10/16 8 Trot 12 000€ 2 625m Saint Omer Destin de Bougy 1'23"2 Attelé
02/10/16 D Trot 12 000€ 2 625m Saint Omer Dandy du Rosay Attelé
01/10/16 D Trot 20 000€ 2 700m Le Croise Laroche Deauvilla Attelé
01/10/16 8 Trot 22 000€ 2 700m Le Croise Laroche Borneo de Bouteau 1'15"7 Attelé
01/10/16 8 Trot 30 000€ 1 900m Le Croise Laroche Uhendo Rivelliere 1'12"9 Attelé
30/09/16 9 Trot 22 000€ 2 875m Mauquenchy Banana Star 1'17"5 Attelé
30/09/16 2 Trot 21 000€ 2 850m Mauquenchy Calba du Pont 1'16"8 Attelé
26/09/16 4 Trot 20 000€ 2 900m Amiens Djedje Nathanpi 1'19"5 Attelé
26/09/16 9 Trot 21 000€ 2 900m Amiens Chtite Gamine 1'17"9 Attelé
26/09/16 8 Trot 20 000€ 2 400m Amiens Bandit du Houlet 1'16"1 Attelé
25/09/16 2 Trot 15 000€ 2 750m La Capelle Cristiano d'Arc 1'17"5 Attelé
25/09/16 0 Trot 17 000€ 2 700m La Capelle Adrie de Carsi Attelé
25/09/16 1 Trot 17 000€ 2 700m La Capelle Alexis des Pres 1'16"6 Attelé
24/09/16 D Trot 12 000€ 2 100m Le Touquet Dona Williams Attelé
24/09/16 3 Trot 12 000€ 2 100m Le Touquet Duc des Clerbosq Attelé
24/09/16 6 Trot 16 000€ 2 600m Le Touquet Aubin des Bois Attelé
24/09/16 8 Trot 16 000€ 2 625m Le Touquet Brenilyse Attelé
18/09/16 3 Trot 15 000€ 2 650m Saint Omer Bandit du Houlet 1'18"9 Attelé
18/09/16 0 Trot 25 000€ 2 650m Saint Omer Uhland Attelé
18/09/16 1 Trot 14 000€ 2 625m Saint Omer Do Kiss Me 1'23"4 Attelé
18/09/16 0 Trot 15 000€ 2 650m Saint Omer Cidre de Mareuil Attelé
18/09/16 2 Trot 14 000€ 2 625m Saint Omer Dulcinee d'Arbaz 1'22"0 Attelé
16/09/16 D Trot 18 000€ 2 825m Le Croise Laroche Diego du Houlet Attelé
16/09/16 0 Trot 19 000€ 2 700m Le Croise Laroche Cannelle For Ever Attelé
16/09/16 D Trot 19 000€ 2 700m Le Croise Laroche Cedre de la Vallee Attelé
16/09/16 3 Trot 19 000€ 2 700m Le Croise Laroche Cristal du Pont 1'17"2 Attelé
16/09/16 5 Trot 25 000€ 2 850m Le Croise Laroche Vergadell 1'15"8 Attelé
15/09/16 6 Trot 21 000€ 2 600m Reims Calba du Pont 1'16"5 Attelé